Time;durP1;ratioP1;P1;durP2;ratioP2;P2;SDS_P1;SDS_P2;PMS_P1;PMS_P2;Temp;Humidity;BMP_temperature;BMP_pressure;BME280_temperature;BME280_humidity;BME280_pressure;Samples;Min_cycle;Max_cycle;Signal;HPM_P1;HPM_P2
2024/01/04 00:01:09;;;;;;;6.70;1.87;;;;;;;;;;5059655;28;20043;-66
2024/01/04 00:03:34;;;;;;;5.80;1.85;;;;;;;;;;5078090;28;20284;-66
2024/01/04 00:06:01;;;;;;;5.30;2.05;;;;;;;;;;5077479;28;20028;-66
2024/01/04 00:08:26;;;;;;;6.15;1.73;;;;;;;;;;5078550;28;20137;-66
2024/01/04 00:10:52;;;;;;;5.93;2.20;;;;;;;;;;5059278;28;20677;-66
2024/01/04 00:13:17;;;;;;;6.50;1.92;;;;;;;;;;5078041;28;20424;-66
2024/01/04 00:15:42;;;;;;;8.97;2.30;;;;;;;;;;5078333;28;20039;-66
2024/01/04 00:18:08;;;;;;;4.28;1.75;;;;;;;;;;5079077;28;20273;-66
2024/01/04 00:20:33;;;;;;;5.95;2.13;;;;;;;;;;5077406;28;20085;-66
2024/01/04 00:22:58;;;;;;;5.00;1.50;;;;;;;;;;5077209;28;20032;-66
2024/01/04 00:25:23;;;;;;;4.22;1.63;;;;;;;;;;5077879;28;20284;-66
2024/01/04 00:27:49;;;;;;;5.68;1.63;;;;;;;;;;5077929;28;20024;-66
2024/01/04 00:30:14;;;;;;;10.20;2.13;;;;;;;;;;5078911;28;20048;-66
2024/01/04 00:32:39;;;;;;;4.40;1.43;;;;;;;;;;5060059;28;20028;-66
2024/01/04 00:35:04;;;;;;;6.03;1.85;;;;;;;;;;5079701;28;20278;-66
2024/01/04 00:37:30;;;;;;;5.00;1.92;;;;;;;;;;5081861;28;20172;-66
2024/01/04 00:39:55;;;;;;;8.50;2.23;;;;;;;;;;5080041;28;20036;-66
2024/01/04 00:42:20;;;;;;;3.30;1.80;;;;;;;;;;5079177;28;20653;-66
2024/01/04 00:44:45;;;;;;;6.47;2.38;;;;;;;;;;5064097;28;20746;-66
2024/01/04 00:47:10;;;;;;;6.95;2.15;;;;;;;;;;5081941;28;20134;-66
2024/01/04 00:49:36;;;;;;;6.50;1.93;;;;;;;;;;5080156;28;20059;-66
2024/01/04 00:52:01;;;;;;;9.87;2.27;;;;;;;;;;5081473;28;20405;-66
2024/01/04 00:54:26;;;;;;;6.30;1.85;;;;;;;;;;5075581;28;20365;-66
2024/01/04 00:56:52;;;;;;;5.00;1.70;;;;;;;;;;5078146;28;20036;-66
2024/01/04 00:59:17;;;;;;;7.57;1.90;;;;;;;;;;5079004;28;20305;-66
2024/01/04 01:01:42;;;;;;;3.33;1.70;;;;;;;;;;5072954;28;20035;-66
2024/01/04 01:04:07;;;;;;;5.53;2.00;;;;;;;;;;5077782;28;20523;-66
2024/01/04 01:06:34;;;;;;;6.03;1.40;;;;;;;;;;5080750;28;20278;-66
2024/01/04 01:08:59;;;;;;;5.95;1.67;;;;;;;;;;5076146;28;20025;-66
2024/01/04 01:11:24;;;;;;;5.90;1.70;;;;;;;;;;5077750;28;20055;-66
2024/01/04 01:13:49;;;;;;;4.90;1.60;;;;;;;;;;5077976;28;20289;-66
2024/01/04 01:16:15;;;;;;;6.83;2.07;;;;;;;;;;5068014;28;20266;-66
2024/01/04 01:18:40;;;;;;;4.65;1.45;;;;;;;;;;5055003;28;20290;-66
2024/01/04 01:21:06;;;;;;;1.95;0.90;;;;;;;;;;5076467;28;20032;-66
2024/01/04 01:23:31;;;;;;;3.92;1.23;;;;;;;;;;5074356;28;20118;-66
2024/01/04 01:25:57;;;;;;;3.65;1.30;;;;;;;;;;5078712;28;20802;-66
2024/01/04 01:28:22;;;;;;;3.25;1.30;;;;;;;;;;5078989;28;20398;-66
2024/01/04 01:30:47;;;;;;;5.25;1.33;;;;;;;;;;5075704;28;20032;-66
2024/01/04 01:33:13;;;;;;;2.58;1.27;;;;;;;;;;5083417;28;20067;-66
2024/01/04 01:35:38;;;;;;;5.30;1.40;;;;;;;;;;5085288;28;20074;-66
2024/01/04 01:38:03;;;;;;;3.55;1.10;;;;;;;;;;5081856;28;20274;-66
2024/01/04 01:40:29;;;;;;;6.07;1.30;;;;;;;;;;5081003;28;20059;-66
2024/01/04 01:42:54;;;;;;;7.35;1.55;;;;;;;;;;5079805;28;20674;-65
2024/01/04 01:45:20;;;;;;;5.25;1.42;;;;;;;;;;5079213;28;20040;-65
2024/01/04 01:47:46;;;;;;;3.05;1.38;;;;;;;;;;5078515;28;20028;-66
2024/01/04 01:50:11;;;;;;;2.80;1.05;;;;;;;;;;5079256;28;20039;-65
2024/01/04 01:52:36;;;;;;;7.38;1.13;;;;;;;;;;5078537;28;20831;-65
2024/01/04 01:55:07;;;;;;;2.00;1.13;;;;;;;;;;5080061;28;20028;-66
2024/01/04 01:57:33;;;;;;;4.30;1.00;;;;;;;;;;5076487;28;20028;-66
2024/01/04 01:59:59;;;;;;;4.18;1.80;;;;;;;;;;5079809;28;20028;-66
2024/01/04 02:02:24;;;;;;;2.85;1.35;;;;;;;;;;5062858;28;20031;-65
2024/01/04 02:04:50;;;;;;;7.47;1.88;;;;;;;;;;5081669;28;20027;-66
2024/01/04 02:07:15;;;;;;;5.38;1.67;;;;;;;;;;5078317;28;20024;-66
2024/01/04 02:09:40;;;;;;;3.97;1.63;;;;;;;;;;5076366;28;20020;-66
2024/01/04 02:12:06;;;;;;;5.30;1.40;;;;;;;;;;5077542;28;20278;-65
2024/01/04 02:14:32;;;;;;;7.47;1.75;;;;;;;;;;5076341;28;20039;-65
2024/01/04 02:16:57;;;;;;;5.15;1.92;;;;;;;;;;5077507;28;20093;-65
2024/01/04 02:19:24;;;;;;;3.37;1.63;;;;;;;;;;5075036;28;20690;-65
2024/01/04 02:21:49;;;;;;;6.47;2.88;;;;;;;;;;5074970;28;20285;-66
2024/01/04 02:24:14;;;;;;;7.07;2.03;;;;;;;;;;5076292;28;20019;-66
2024/01/04 02:26:39;;;;;;;7.93;3.00;;;;;;;;;;5078169;28;20320;-66
2024/01/04 02:29:04;;;;;;;6.47;2.33;;;;;;;;;;5078630;28;20395;-65
2024/01/04 02:31:30;;;;;;;6.27;2.90;;;;;;;;;;5076548;28;20735;-66
2024/01/04 02:33:55;;;;;;;5.90;2.90;;;;;;;;;;5076706;28;20784;-66
2024/01/04 02:36:20;;;;;;;5.07;2.28;;;;;;;;;;5078112;28;21150;-66
2024/01/04 02:38:45;;;;;;;11.30;2.95;;;;;;;;;;5067222;28;20024;-66
2024/01/04 02:41:11;;;;;;;6.27;2.70;;;;;;;;;;5078308;28;20146;-66
2024/01/04 02:43:36;;;;;;;4.60;2.60;;;;;;;;;;5079274;28;20331;-66
2024/01/04 02:46:01;;;;;;;10.17;3.07;;;;;;;;;;5080064;28;20277;-66
2024/01/04 02:48:26;;;;;;;9.98;2.72;;;;;;;;;;5081440;28;20334;-66
2024/01/04 02:50:51;;;;;;;8.73;2.88;;;;;;;;;;5078998;28;20027;-66
2024/01/04 02:53:17;;;;;;;9.07;2.80;;;;;;;;;;5077594;28;20028;-66
2024/01/04 02:55:42;;;;;;;5.27;3.07;;;;;;;;;;5077354;28;20351;-66
2024/01/04 02:58:07;;;;;;;5.63;3.10;;;;;;;;;;5077590;28;20684;-66
2024/01/04 03:00:32;;;;;;;8.67;2.30;;;;;;;;;;5079495;28;21155;-66
2024/01/04 03:02:57;;;;;;;8.18;3.25;;;;;;;;;;5077979;28;20923;-66
2024/01/04 03:05:23;;;;;;;8.80;3.10;;;;;;;;;;5079037;28;20035;-66
2024/01/04 03:07:48;;;;;;;6.43;2.65;;;;;;;;;;5077774;28;20031;-66
2024/01/04 03:10:13;;;;;;;9.10;2.80;;;;;;;;;;5076735;28;20036;-66
2024/01/04 03:12:38;;;;;;;5.38;2.72;;;;;;;;;;5057381;28;20300;-66
2024/01/04 03:15:05;;;;;;;6.50;2.90;;;;;;;;;;5075851;28;20032;-66
2024/01/04 03:17:31;;;;;;;12.57;3.30;;;;;;;;;;5075104;28;20787;-65
2024/01/04 03:19:56;;;;;;;8.57;3.13;;;;;;;;;;5069117;28;20048;-65
2024/01/04 03:22:21;;;;;;;8.80;3.10;;;;;;;;;;5069956;28;20404;-65
2024/01/04 03:24:46;;;;;;;7.77;3.13;;;;;;;;;;5049024;28;20047;-65
2024/01/04 03:27:12;;;;;;;6.13;2.75;;;;;;;;;;5077825;28;20372;-65
2024/01/04 03:29:37;;;;;;;7.35;2.10;;;;;;;;;;5076167;28;20088;-65
2024/01/04 03:32:05;;;;;;;8.32;2.80;;;;;;;;;;5077727;28;20749;-65
2024/01/04 03:34:30;;;;;;;9.25;2.70;;;;;;;;;;5078635;28;20093;-65
2024/01/04 03:36:55;;;;;;;5.68;2.20;;;;;;;;;;5075875;28;20028;-64
2024/01/04 03:39:20;;;;;;;4.87;2.70;;;;;;;;;;5057379;28;20028;-65
2024/01/04 03:41:46;;;;;;;6.35;2.17;;;;;;;;;;5074977;28;20274;-65
2024/01/04 03:44:11;;;;;;;5.50;1.67;;;;;;;;;;5076363;28;20577;-65
2024/01/04 03:46:36;;;;;;;3.50;1.80;;;;;;;;;;5077740;28;20367;-65
2024/01/04 03:49:02;;;;;;;5.20;1.60;;;;;;;;;;5080014;28;20023;-64
2024/01/04 03:51:27;;;;;;;2.70;1.27;;;;;;;;;;5077636;28;20067;-64
2024/01/04 03:53:52;;;;;;;2.30;0.90;;;;;;;;;;5073836;28;20340;-65
2024/01/04 03:56:18;;;;;;;2.28;0.90;;;;;;;;;;5076194;28;21135;-64
2024/01/04 03:58:43;;;;;;;2.17;0.70;;;;;;;;;;5077415;28;20036;-64
2024/01/04 04:01:08;;;;;;;5.53;0.90;;;;;;;;;;5067447;28;20069;-64
2024/01/04 04:03:33;;;;;;;2.55;1.05;;;;;;;;;;5065294;28;20308;-65
2024/01/04 04:06:03;;;;;;;2.20;0.60;;;;;;;;;;5043958;28;20024;-65
2024/01/04 04:08:29;;;;;;;3.38;0.90;;;;;;;;;;5076870;28;20347;-64
2024/01/04 04:10:54;;;;;;;5.30;0.83;;;;;;;;;;5077359;28;20028;-64
2024/01/04 04:13:19;;;;;;;2.60;0.70;;;;;;;;;;5070376;28;20270;-64
2024/01/04 04:15:45;;;;;;;1.13;0.32;;;;;;;;;;5078447;28;20085;-65
2024/01/04 04:18:10;;;;;;;1.58;0.57;;;;;;;;;;5080572;28;20020;-64
2024/01/04 04:20:35;;;;;;;1.85;0.77;;;;;;;;;;5080927;28;20096;-65
2024/01/04 04:23:01;;;;;;;2.58;0.68;;;;;;;;;;5080650;28;20016;-64
2024/01/04 04:25:26;;;;;;;2.90;0.60;;;;;;;;;;5079345;28;20031;-65
2024/01/04 04:27:51;;;;;;;1.52;0.57;;;;;;;;;;5076072;28;20024;-65
2024/01/04 04:30:18;;;;;;;2.87;0.80;;;;;;;;;;5077867;28;20040;-65
2024/01/04 04:32:43;;;;;;;4.40;1.20;;;;;;;;;;5066150;28;20278;-66
2024/01/04 04:35:08;;;;;;;2.33;1.23;;;;;;;;;;5074106;28;20081;-64
2024/01/04 04:37:34;;;;;;;6.65;1.60;;;;;;;;;;5079686;28;20278;-65
2024/01/04 04:39:59;;;;;;;3.83;1.73;;;;;;;;;;5082203;28;20035;-65
2024/01/04 04:42:24;;;;;;;6.00;1.80;;;;;;;;;;5082547;28;20319;-65
2024/01/04 04:44:49;;;;;;;4.03;1.57;;;;;;;;;;5084324;28;20274;-64
2024/01/04 04:47:14;;;;;;;3.90;1.80;;;;;;;;;;5082528;28;20312;-65
2024/01/04 04:49:40;;;;;;;4.05;2.03;;;;;;;;;;5080651;28;20282;-66
2024/01/04 04:52:05;;;;;;;6.17;2.30;;;;;;;;;;5080342;28;20020;-65
2024/01/04 04:54:30;;;;;;;7.13;2.58;;;;;;;;;;5078709;28;20281;-65
2024/01/04 04:56:56;;;;;;;5.77;2.30;;;;;;;;;;5068091;28;20032;-64
2024/01/04 04:59:21;;;;;;;5.15;2.20;;;;;;;;;;5075901;28;20647;-64
2024/01/04 05:01:47;;;;;;;5.13;2.30;;;;;;;;;;5079126;28;20031;-64
2024/01/04 05:04:12;;;;;;;3.35;1.95;;;;;;;;;;5078380;28;20298;-64
2024/01/04 05:06:37;;;;;;;3.45;1.73;;;;;;;;;;5079996;28;20032;-66
2024/01/04 05:09:03;;;;;;;3.67;1.95;;;;;;;;;;5080513;28;20691;-64
2024/01/04 05:11:28;;;;;;;3.23;1.43;;;;;;;;;;5082898;28;20477;-65
2024/01/04 05:13:53;;;;;;;6.37;2.03;;;;;;;;;;5073457;28;21054;-64
2024/01/04 05:16:19;;;;;;;5.77;2.07;;;;;;;;;;5082174;28;20802;-65
2024/01/04 05:18:45;;;;;;;3.60;1.83;;;;;;;;;;5081574;28;20352;-65
2024/01/04 05:21:10;;;;;;;4.43;1.95;;;;;;;;;;5081992;28;20036;-65
2024/01/04 05:23:35;;;;;;;5.63;1.33;;;;;;;;;;5082877;28;20020;-65
2024/01/04 05:26:00;;;;;;;3.90;1.55;;;;;;;;;;5082572;28;20303;-65
2024/01/04 05:28:26;;;;;;;7.57;1.80;;;;;;;;;;5082324;28;20507;-65
2024/01/04 05:30:51;;;;;;;4.47;1.73;;;;;;;;;;5081084;28;20954;-65
2024/01/04 05:33:16;;;;;;;3.97;1.70;;;;;;;;;;5084157;28;20286;-65
2024/01/04 05:35:41;;;;;;;2.67;1.47;;;;;;;;;;5082472;28;20274;-65
2024/01/04 05:38:07;;;;;;;4.68;2.25;;;;;;;;;;5081861;28;20281;-65
2024/01/04 05:40:32;;;;;;;6.93;2.80;;;;;;;;;;5080025;28;20020;-64
2024/01/04 05:42:58;;;;;;;4.47;2.10;;;;;;;;;;5081561;28;20604;-65
2024/01/04 05:45:24;;;;;;;4.65;2.47;;;;;;;;;;5083255;28;20274;-65
2024/01/04 05:47:49;;;;;;;5.63;2.17;;;;;;;;;;5071406;28;20106;-65
2024/01/04 05:50:14;;;;;;;5.53;2.47;;;;;;;;;;5076599;28;20130;-65
2024/01/04 05:52:40;;;;;;;4.20;2.28;;;;;;;;;;5076642;28;20085;-65
2024/01/04 05:55:05;;;;;;;3.97;2.35;;;;;;;;;;5076999;28;20032;-64
2024/01/04 05:57:30;;;;;;;7.97;3.33;;;;;;;;;;5079412;28;20039;-65
2024/01/04 05:59:56;;;;;;;4.75;2.72;;;;;;;;;;5083503;28;20032;-66
2024/01/04 06:02:22;;;;;;;5.68;2.63;;;;;;;;;;5082798;28;20035;-66
2024/01/04 06:04:47;;;;;;;5.50;2.60;;;;;;;;;;5081226;28;20039;-65
2024/01/04 06:07:12;;;;;;;5.97;2.03;;;;;;;;;;5079801;28;20028;-65
2024/01/04 06:09:38;;;;;;;3.95;2.15;;;;;;;;;;5081743;28;20270;-65
2024/01/04 06:12:03;;;;;;;5.43;2.50;;;;;;;;;;5080188;28;20036;-65
2024/01/04 06:14:30;;;;;;;8.75;2.50;;;;;;;;;;5076187;28;20035;-67
2024/01/04 06:16:56;;;;;;;5.95;2.15;;;;;;;;;;5074718;28;20077;-66
2024/01/04 06:19:21;;;;;;;6.53;2.83;;;;;;;;;;5078151;28;20020;-65
2024/01/04 06:21:46;;;;;;;7.75;2.97;;;;;;;;;;5080125;28;20067;-65
2024/01/04 06:24:12;;;;;;;11.95;7.47;;;;;;;;;;5079217;28;20028;-65
2024/01/04 06:26:37;;;;;;;14.50;8.45;;;;;;;;;;5081728;28;20478;-65
2024/01/04 06:29:02;;;;;;;9.50;6.22;;;;;;;;;;5061947;28;20035;-65
2024/01/04 06:31:27;;;;;;;8.53;3.43;;;;;;;;;;5079773;28;20039;-65
2024/01/04 06:33:53;;;;;;;6.53;3.03;;;;;;;;;;5079276;28;20285;-66
2024/01/04 06:36:18;;;;;;;9.13;3.30;;;;;;;;;;5081466;28;20344;-65
2024/01/04 06:38:43;;;;;;;6.67;2.03;;;;;;;;;;5079660;28;20035;-65
2024/01/04 06:41:08;;;;;;;5.67;2.30;;;;;;;;;;5076541;28;20266;-65
2024/01/04 06:43:33;;;;;;;8.27;2.57;;;;;;;;;;5078388;28;20270;-66
2024/01/04 06:45:59;;;;;;;6.40;2.20;;;;;;;;;;5079780;28;20782;-66
2024/01/04 06:48:24;;;;;;;4.63;1.95;;;;;;;;;;5080371;28;21095;-66
2024/01/04 06:50:50;;;;;;;5.18;2.45;;;;;;;;;;5078303;28;20482;-66
2024/01/04 06:53:15;;;;;;;7.47;1.90;;;;;;;;;;5077826;28;20082;-66
2024/01/04 06:55:41;;;;;;;5.47;2.40;;;;;;;;;;5076367;28;20055;-66
2024/01/04 06:58:06;;;;;;;6.10;2.28;;;;;;;;;;5077195;28;20040;-65
2024/01/04 07:00:31;;;;;;;3.22;1.45;;;;;;;;;;5078694;28;20055;-66
2024/01/04 07:02:56;;;;;;;4.63;1.80;;;;;;;;;;5078137;28;20031;-66
2024/01/04 07:05:22;;;;;;;4.45;1.55;;;;;;;;;;5078563;28;20342;-66
2024/01/04 07:07:47;;;;;;;3.88;1.80;;;;;;;;;;5076382;28;20043;-66
2024/01/04 07:10:12;;;;;;;8.68;1.67;;;;;;;;;;5067722;28;20031;-66
2024/01/04 07:12:39;;;;;;;3.85;2.00;;;;;;;;;;5081249;28;20055;-65
2024/01/04 07:15:05;;;;;;;6.32;1.83;;;;;;;;;;5080614;28;20032;-65
2024/01/04 07:17:30;;;;;;;5.45;1.73;;;;;;;;;;5078374;28;20039;-66
2024/01/04 07:19:55;;;;;;;8.65;1.90;;;;;;;;;;5081894;28;20032;-66
2024/01/04 07:22:20;;;;;;;4.17;1.67;;;;;;;;;;5081061;28;20420;-66
2024/01/04 07:24:46;;;;;;;5.57;1.45;;;;;;;;;;5083049;28;20274;-66
2024/01/04 07:27:11;;;;;;;5.63;1.27;;;;;;;;;;5081843;28;20054;-66
2024/01/04 07:29:37;;;;;;;3.78;1.70;;;;;;;;;;5082148;28;20274;-66
2024/01/04 07:32:02;;;;;;;6.00;1.73;;;;;;;;;;5084578;28;20035;-66
2024/01/04 07:34:27;;;;;;;6.25;2.35;;;;;;;;;;5083590;28;20039;-66
2024/01/04 07:36:53;;;;;;;8.07;1.83;;;;;;;;;;5082090;28;20012;-66
2024/01/04 07:39:18;;;;;;;6.88;1.48;;;;;;;;;;5083425;28;20069;-66
2024/01/04 07:41:43;;;;;;;3.20;1.37;;;;;;;;;;5075626;28;20032;-66
2024/01/04 07:44:09;;;;;;;5.22;2.03;;;;;;;;;;5079667;28;20270;-66
2024/01/04 07:46:34;;;;;;;10.00;1.83;;;;;;;;;;5085708;28;20541;-66
2024/01/04 07:48:59;;;;;;;3.10;1.30;;;;;;;;;;5086929;28;20036;-66
2024/01/04 07:51:24;;;;;;;6.68;1.75;;;;;;;;;;5084294;28;20902;-67
2024/01/04 07:53:50;;;;;;;5.72;1.13;;;;;;;;;;5068442;28;20031;-66
2024/01/04 07:56:15;;;;;;;6.67;1.37;;;;;;;;;;5088132;28;20024;-66
2024/01/04 07:58:40;;;;;;;3.75;1.95;;;;;;;;;;5085222;28;20285;-66
2024/01/04 08:01:06;;;;;;;3.63;1.47;;;;;;;;;;5085116;28;20039;-66
2024/01/04 08:03:31;;;;;;;5.35;1.20;;;;;;;;;;5087590;28;20301;-66
2024/01/04 08:05:57;;;;;;;5.45;1.15;;;;;;;;;;5088661;28;20043;-66
2024/01/04 08:08:22;;;;;;;6.32;1.70;;;;;;;;;;5085658;28;20081;-66
2024/01/04 08:10:47;;;;;;;4.40;1.48;;;;;;;;;;5048288;28;20040;-66
2024/01/04 08:13:16;;;;;;;3.72;1.40;;;;;;;;;;5083220;28;20063;-66
2024/01/04 08:15:41;;;;;;;4.72;1.70;;;;;;;;;;5084536;28;20132;-66
2024/01/04 08:18:06;;;;;;;2.70;1.20;;;;;;;;;;5087383;28;20546;-66
2024/01/04 08:20:32;;;;;;;3.77;1.30;;;;;;;;;;5074032;28;20946;-66
2024/01/04 08:22:57;;;;;;;4.75;1.67;;;;;;;;;;5083980;28;20803;-66
2024/01/04 08:25:23;;;;;;;5.07;1.80;;;;;;;;;;5087341;28;20031;-66
2024/01/04 08:27:48;;;;;;;3.85;1.52;;;;;;;;;;5075893;28;20020;-66
2024/01/04 08:30:13;;;;;;;6.63;1.83;;;;;;;;;;5059965;28;20038;-66
2024/01/04 08:32:39;;;;;;;6.45;2.10;;;;;;;;;;5070273;28;20319;-66
2024/01/04 08:35:04;;;;;;;4.68;1.85;;;;;;;;;;5074592;28;20035;-66
2024/01/04 08:37:29;;;;;;;6.70;2.28;;;;;;;;;;5076112;28;20028;-66
2024/01/04 08:39:55;;;;;;;8.20;3.33;;;;;;;;;;5066251;28;20035;-67
2024/01/04 08:42:20;;;;;;;9.60;4.68;;;;;;;;;;5071033;28;20032;-67
2024/01/04 08:44:45;;;;;;;10.70;4.30;;;;;;;;;;5065020;28;20504;-67
2024/01/04 08:47:10;;;;;;;13.80;6.50;;;;;;;;;;5070002;28;20143;-66
2024/01/04 08:49:36;;;;;;;16.40;9.48;;;;;;;;;;5078193;28;20077;-65
2024/01/04 08:52:01;;;;;;;8.07;5.20;;;;;;;;;;5080782;28;20483;-66
2024/01/04 08:54:28;;;;;;;5.47;3.35;;;;;;;;;;5083123;28;20036;-66
2024/01/04 08:56:54;;;;;;;7.25;4.90;;;;;;;;;;5067078;28;20090;-66
2024/01/04 08:59:19;;;;;;;6.97;3.20;;;;;;;;;;5067562;28;20478;-66
2024/01/04 09:01:44;;;;;;;6.30;3.10;;;;;;;;;;5073373;28;20495;-66
2024/01/04 09:04:10;;;;;;;5.72;2.70;;;;;;;;;;5069293;28;20542;-65
2024/01/04 09:06:36;;;;;;;6.87;2.90;;;;;;;;;;5079295;28;20053;-65
2024/01/04 09:09:05;;;;;;;6.43;2.90;;;;;;;;;;5091395;28;20266;-66
2024/01/04 09:11:30;;;;;;;5.82;2.88;;;;;;;;;;5091480;28;20445;-66
2024/01/04 09:13:55;;;;;;;11.00;3.07;;;;;;;;;;5090794;28;20108;-67
2024/01/04 09:16:22;;;;;;;7.18;2.90;;;;;;;;;;5093239;28;20783;-67
2024/01/04 09:18:48;;;;;;;6.97;3.30;;;;;;;;;;5093040;28;20016;-67
2024/01/04 09:21:14;;;;;;;6.95;2.60;;;;;;;;;;5090640;28;20082;-66
2024/01/04 09:23:39;;;;;;;8.45;2.40;;;;;;;;;;5092138;28;20036;-66
2024/01/04 09:26:08;;;;;;;8.65;2.50;;;;;;;;;;5091921;28;20020;-66
2024/01/04 09:28:34;;;;;;;5.85;2.65;;;;;;;;;;5093312;28;20498;-66
2024/01/04 09:30:59;;;;;;;3.63;1.75;;;;;;;;;;5076070;28;20146;-66
2024/01/04 09:33:24;;;;;;;11.37;2.30;;;;;;;;;;5084752;28;20098;-66
2024/01/04 09:35:50;;;;;;;4.55;2.10;;;;;;;;;;5089096;28;20353;-67
2024/01/04 09:38:15;;;;;;;4.93;1.92;;;;;;;;;;5080034;28;20051;-67
2024/01/04 09:40:40;;;;;;;6.72;2.20;;;;;;;;;;5083133;28;20020;-67
2024/01/04 09:43:06;;;;;;;4.32;2.10;;;;;;;;;;5076502;28;20531;-66
2024/01/04 09:45:32;;;;;;;5.43;2.20;;;;;;;;;;5056230;28;20797;-66
2024/01/04 09:47:59;;;;;;;9.07;2.47;;;;;;;;;;5066664;28;20086;-66
2024/01/04 09:50:25;;;;;;;7.57;2.88;;;;;;;;;;5088990;28;20622;-67
2024/01/04 09:52:54;;;;;;;4.65;1.88;;;;;;;;;;5087616;28;20020;-66
2024/01/04 09:55:21;;;;;;;5.07;2.33;;;;;;;;;;5079578;28;20138;-67
2024/01/04 09:57:46;;;;;;;4.70;2.42;;;;;;;;;;5088123;28;20032;-67
2024/01/04 10:00:11;;;;;;;6.15;2.60;;;;;;;;;;5087829;28;20032;-67
2024/01/04 10:02:40;;;;;;;7.85;2.67;;;;;;;;;;5087957;28;20028;-67
2024/01/04 10:05:05;;;;;;;7.82;2.75;;;;;;;;;;5082826;28;20027;-66
2024/01/04 10:07:33;;;;;;;5.03;2.45;;;;;;;;;;5090439;28;20044;-65
2024/01/04 10:10:04;;;;;;;8.68;3.25;;;;;;;;;;5090321;28;20082;-67
2024/01/04 10:12:36;;;;;;;6.35;2.70;;;;;;;;;;5092252;28;20506;-66
2024/01/04 10:15:03;;;;;;;6.22;2.83;;;;;;;;;;5090822;28;20024;-66
2024/01/04 10:17:28;;;;;;;6.63;2.72;;;;;;;;;;5092118;28;20031;-67
2024/01/04 10:19:54;;;;;;;8.52;2.92;;;;;;;;;;5084062;28;20036;-66
2024/01/04 10:22:21;;;;;;;7.45;3.03;;;;;;;;;;5053016;28;20868;-67
2024/01/04 10:24:47;;;;;;;5.50;2.65;;;;;;;;;;5050651;28;20078;-66
2024/01/04 10:27:14;;;;;;;12.45;3.20;;;;;;;;;;5047341;28;20027;-66
2024/01/04 10:29:41;;;;;;;8.40;3.45;;;;;;;;;;5047493;28;20024;-66
2024/01/04 10:32:10;;;;;;;12.95;3.47;;;;;;;;;;5046113;28;21392;-66
2024/01/04 10:34:36;;;;;;;8.48;2.78;;;;;;;;;;5032619;28;20139;-66
2024/01/04 10:37:14;;;;;;;8.38;3.22;;;;;;;;;;5044566;28;20249;-67
2024/01/04 10:39:45;;;;;;;11.00;2.95;;;;;;;;;;5060209;28;20054;-67
2024/01/04 10:42:12;;;;;;;9.02;2.95;;;;;;;;;;5048088;28;20032;-67
2024/01/04 10:44:37;;;;;;;12.88;3.03;;;;;;;;;;5045882;28;20020;-67
2024/01/04 10:47:03;;;;;;;8.43;3.67;;;;;;;;;;5048176;28;20995;-67
2024/01/04 10:49:29;;;;;;;11.85;3.45;;;;;;;;;;5071399;28;20024;-67
2024/01/04 10:51:58;;;;;;;12.32;3.13;;;;;;;;;;5074683;28;20547;-66
2024/01/04 10:54:37;;;;;;;22.90;4.18;;;;;;;;;;5082629;28;20024;-66
2024/01/04 10:57:02;;;;;;;12.55;3.25;;;;;;;;;;5083415;28;20147;-66
2024/01/04 10:59:28;;;;;;;15.25;3.10;;;;;;;;;;5067360;28;20123;-66
2024/01/04 11:01:54;;;;;;;11.18;3.00;;;;;;;;;;5088415;28;20042;-66
2024/01/04 11:04:19;;;;;;;10.73;3.00;;;;;;;;;;5082987;28;20478;-66
2024/01/04 11:06:44;;;;;;;13.23;3.20;;;;;;;;;;5074472;28;20846;-68
2024/01/04 11:09:10;;;;;;;11.60;2.60;;;;;;;;;;5078270;28;20099;-67
2024/01/04 11:11:35;;;;;;;10.35;3.17;;;;;;;;;;5078928;28;20024;-67
2024/01/04 11:14:04;;;;;;;14.15;2.72;;;;;;;;;;5080813;28;20039;-67
2024/01/04 11:16:44;;;;;;;16.05;3.40;;;;;;;;;;5078420;28;20061;-66
2024/01/04 11:19:12;;;;;;;9.15;2.78;;;;;;;;;;5078410;28;20036;-66
2024/01/04 11:21:40;;;;;;;11.50;3.17;;;;;;;;;;5082697;28;20735;-67
2024/01/04 11:24:07;;;;;;;16.30;3.38;;;;;;;;;;5084965;28;20164;-66
2024/01/04 11:27:14;;;;;;;4.38;2.25;;;;;;;;;;5088248;28;20044;-66
2024/01/04 11:29:40;;;;;;;16.05;2.42;;;;;;;;;;4960909;28;20050;-68
2024/01/04 11:32:05;;;;;;;15.23;2.63;;;;;;;;;;4961322;28;20030;-65
2024/01/04 11:34:31;;;;;;;10.40;3.08;;;;;;;;;;5021341;28;20047;-66
2024/01/04 11:37:09;;;;;;;14.15;3.25;;;;;;;;;;5083153;28;20028;-66
2024/01/04 11:39:34;;;;;;;11.93;3.15;;;;;;;;;;5057407;28;20032;-66
2024/01/04 11:41:59;;;;;;;9.73;3.03;;;;;;;;;;5060280;28;20020;-66
2024/01/04 11:44:34;;;;;;;8.85;2.83;;;;;;;;;;5084621;28;20266;-66
2024/01/04 11:46:59;;;;;;;;;;;;;;;;;;5081894;28;20094;-67
2024/01/04 11:49:25;;;;;;;14.68;3.15;;;;;;;;;;5081831;28;19950;-66
2024/01/04 11:51:51;;;;;;;9.05;3.20;;;;;;;;;;5079405;28;20040;-66
2024/01/04 11:54:17;;;;;;;5.15;1.60;;;;;;;;;;5074286;28;20657;-66
2024/01/04 11:56:42;;;;;;;12.10;2.83;;;;;;;;;;5078930;28;20016;-66
2024/01/04 11:59:11;;;;;;;11.82;3.15;;;;;;;;;;5070939;28;21104;-67
2024/01/04 12:01:40;;;;;;;8.88;2.30;;;;;;;;;;5071798;28;20134;-66
2024/01/04 12:04:06;;;;;;;9.57;2.00;;;;;;;;;;5082820;28;20057;-67
2024/01/04 12:06:32;;;;;;;10.85;2.80;;;;;;;;;;5081711;28;20024;-67
2024/01/04 12:09:00;;;;;;;7.50;2.05;;;;;;;;;;5083935;28;20027;-67
2024/01/04 12:11:25;;;;;;;7.75;1.25;;;;;;;;;;5088903;28;20028;-69
2024/01/04 12:13:51;;;;;;;12.30;2.00;;;;;;;;;;5064131;28;20043;-69
2024/01/04 12:16:16;;;;;;;8.60;1.63;;;;;;;;;;5073199;28;20122;-66
2024/01/04 12:18:41;;;;;;;11.80;1.90;;;;;;;;;;5066289;28;20285;-70
2024/01/04 12:21:08;;;;;;;7.10;1.70;;;;;;;;;;5058479;28;20469;-71
2024/01/04 12:23:34;;;;;;;10.15;2.17;;;;;;;;;;5074311;28;20084;-70
2024/01/04 12:26:00;;;;;;;8.98;1.98;;;;;;;;;;5082985;28;20525;-70
2024/01/04 12:28:27;;;;;;;9.20;2.38;;;;;;;;;;5089433;28;20107;-77
2024/01/04 12:30:52;;;;;;;6.13;1.35;;;;;;;;;;5079840;28;20473;-68
2024/01/04 12:33:18;;;;;;;11.25;2.22;;;;;;;;;;5093403;28;20097;-69
2024/01/04 12:35:43;;;;;;;11.05;2.13;;;;;;;;;;5093532;28;20592;-70
2024/01/04 12:38:09;;;;;;;7.80;1.43;;;;;;;;;;5092222;28;20110;-69
2024/01/04 12:40:41;;;;;;;9.70;1.88;;;;;;;;;;5092355;28;20270;-69
2024/01/04 12:43:10;;;;;;;8.07;2.38;;;;;;;;;;5093617;28;20086;-70
2024/01/04 12:45:36;;;;;;;5.55;1.48;;;;;;;;;;5092844;28;20032;-70
2024/01/04 12:48:02;;;;;;;8.63;1.80;;;;;;;;;;5074942;28;20032;-77
2024/01/04 12:50:30;;;;;;;9.18;1.67;;;;;;;;;;5092749;28;20022;-70
2024/01/04 12:52:56;;;;;;;12.35;1.77;;;;;;;;;;5094002;28;20028;-71
2024/01/04 12:55:21;;;;;;;6.22;1.42;;;;;;;;;;5093001;28;20355;-72
2024/01/04 12:57:47;;;;;;;5.80;1.70;;;;;;;;;;5092355;28;20091;-71
2024/01/04 13:00:13;;;;;;;6.05;1.85;;;;;;;;;;5061494;28;20024;-70
2024/01/04 13:02:38;;;;;;;9.52;1.77;;;;;;;;;;5093287;28;20054;-72
2024/01/04 13:05:04;;;;;;;8.27;1.77;;;;;;;;;;5093124;28;20035;-71
2024/01/04 13:07:30;;;;;;;3.58;1.30;;;;;;;;;;5093540;28;20028;-72
2024/01/04 13:09:55;;;;;;;7.18;2.13;;;;;;;;;;5086461;28;20059;-71
2024/01/04 13:12:21;;;;;;;9.88;2.15;;;;;;;;;;5092920;28;20032;-71
2024/01/04 13:14:46;;;;;;;8.05;2.67;;;;;;;;;;5092448;28;20074;-70
2024/01/04 13:17:11;;;;;;;5.90;1.80;;;;;;;;;;5083562;28;20042;-70
2024/01/04 13:19:36;;;;;;;6.53;1.50;;;;;;;;;;5092176;28;20278;-68
2024/01/04 13:22:01;;;;;;;6.10;1.53;;;;;;;;;;5092264;28;20290;-70
2024/01/04 13:24:27;;;;;;;4.70;1.30;;;;;;;;;;5092611;28;20674;-69
2024/01/04 13:26:52;;;;;;;6.80;1.60;;;;;;;;;;5088277;28;20266;-70
2024/01/04 13:29:17;;;;;;;11.37;2.00;;;;;;;;;;5092276;28;20292;-71
2024/01/04 13:31:42;;;;;;;6.45;1.40;;;;;;;;;;5092283;28;20297;-71
2024/01/04 13:34:09;;;;;;;5.07;2.00;;;;;;;;;;5093560;28;20116;-70
2024/01/04 13:36:34;;;;;;;9.43;1.90;;;;;;;;;;5092134;28;20039;-69
2024/01/04 13:38:59;;;;;;;11.75;2.13;;;;;;;;;;5091228;28;20036;-70
2024/01/04 13:41:25;;;;;;;6.18;1.83;;;;;;;;;;5092953;28;20043;-69
2024/01/04 13:43:50;;;;;;;5.97;1.85;;;;;;;;;;5092060;28;20027;-70
2024/01/04 13:46:15;;;;;;;9.03;1.97;;;;;;;;;;5091889;28;20458;-67
2024/01/04 13:48:40;;;;;;;9.80;2.35;;;;;;;;;;5083049;28;20783;-67
2024/01/04 13:51:07;;;;;;;7.18;1.95;;;;;;;;;;5089107;28;20028;-67
2024/01/04 13:53:32;;;;;;;11.05;2.30;;;;;;;;;;5084235;28;20021;-67
2024/01/04 13:55:57;;;;;;;8.25;2.08;;;;;;;;;;5087510;28;20023;-67
2024/01/04 13:58:22;;;;;;;10.03;1.87;;;;;;;;;;5082511;28;20024;-74
2024/01/04 14:00:48;;;;;;;7.20;1.73;;;;;;;;;;5066564;28;20279;-68
2024/01/04 14:03:13;;;;;;;6.82;1.83;;;;;;;;;;5064645;28;20052;-68
2024/01/04 14:05:39;;;;;;;5.75;1.40;;;;;;;;;;5076301;28;20584;-67
2024/01/04 14:08:04;;;;;;;4.65;1.58;;;;;;;;;;5077761;28;20016;-71
2024/01/04 14:10:29;;;;;;;5.97;2.42;;;;;;;;;;5044170;28;20885;-67
2024/01/04 14:12:54;;;;;;;8.83;2.10;;;;;;;;;;5051937;28;20031;-67
2024/01/04 14:15:22;;;;;;;11.32;2.17;;;;;;;;;;5074116;28;20318;-67
2024/01/04 14:17:47;;;;;;;7.32;1.95;;;;;;;;;;5071711;28;20031;-67
2024/01/04 14:20:12;;;;;;;6.50;2.08;;;;;;;;;;5090873;28;20032;-67
2024/01/04 14:22:38;;;;;;;7.82;2.08;;;;;;;;;;5091147;28;20031;-67
2024/01/04 14:25:03;;;;;;;8.67;1.63;;;;;;;;;;5092183;28;20020;-67
2024/01/04 14:27:28;;;;;;;7.78;1.70;;;;;;;;;;5091420;28;20284;-67
2024/01/04 14:29:53;;;;;;;14.85;1.95;;;;;;;;;;5091213;28;20028;-67
2024/01/04 14:32:19;;;;;;;10.45;2.55;;;;;;;;;;5092318;28;20094;-67